| time (UTC) | temp C | wind direction | speed KPH | gust KPH | rain 1hr cm | rain 24hr cm | rain mn cm | humidity % | barometer mb |
| 20260903224726 | 28 | 232 | 3.2 | 3.2 | 0.00 | 2.64 | 2.64 | 79 | 1014.6 |
| 20260903224221 | 28 | 223 | 3.2 | 3.2 | 0.00 | 2.64 | 2.64 | 79 | 1014.5 |
| 20260903223716 | 28 | 244 | 3.2 | 3.2 | 0.00 | 2.64 | 2.64 | 78 | 1014.7 |
| 20260903223215 | 29 | 302 | 3.2 | 3.2 | 0.00 | 2.64 | 2.64 | 78 | 1014.6 |
| 20260903222709 | 29 | 223 | 4.8 | 8.0 | 0.00 | 2.64 | 2.64 | 76 | 1014.5 |
| 20260903222209 | 30 | 238 | 4.8 | 4.8 | 0.00 | 2.64 | 2.64 | 76 | 1014.5 |
| 20260903221703 | 30 | 256 | 1.6 | 3.2 | 0.00 | 2.64 | 2.64 | 75 | 1014.8 |
| 20260903221202 | 30 | 266 | 6.4 | 9.7 | 0.00 | 2.64 | 2.64 | 75 | 1014.6 |
| 20260903220700 | 30 | 306 | 3.2 | 4.8 | 0.00 | 2.64 | 2.64 | 75 | 1014.4 |
| 20260903220155 | 30 | 248 | 3.2 | 3.2 | 0.00 | 2.64 | 2.64 | 75 | 1014.6 |
| 20260903215654 | 30 | 266 | 4.8 | 8.0 | 0.00 | 2.64 | 2.64 | 75 | 1014.6 |
| 20260903215150 | 30 | 290 | 3.2 | 4.8 | 0.00 | 2.64 | 2.64 | 75 | 1014.6 |
| 20260903214648 | 30 | 221 | 1.6 | 1.6 | 0.00 | 2.64 | 2.64 | 76 | 1014.2 |
| 20260903214144 | 30 | 240 | 4.8 | 8.0 | 0.00 | 2.64 | 2.64 | 74 | 1014.2 |
| 20260903213639 | 30 | 251 | 1.6 | 3.2 | 0.00 | 2.64 | 2.64 | 75 | 1014.2 |
| 20260903213135 | 30 | 278 | 4.8 | 4.8 | 0.00 | 2.64 | 2.64 | 74 | 1014.0 |
| 20260903212631 | 30 | 223 | 0.0 | 1.6 | 0.00 | 2.64 | 2.64 | 75 | 1014.1 |
| 20260903212126 | 31 | 285 | 6.4 | 8.0 | 0.00 | 2.64 | 2.64 | 72 | 1014.0 |
| 20260903211625 | 30 | 249 | 0.0 | 1.6 | 0.00 | 2.64 | 2.64 | 74 | 1013.9 |
| 20260903211123 | 30 | 260 | 1.6 | 1.6 | 0.00 | 2.64 | 2.64 | 75 | 1013.8 |
| 20260903210618 | 30 | 244 | 1.6 | 3.2 | 0.00 | 2.64 | 2.64 | 75 | 1014.0 |
| 20260903210114 | 30 | 278 | 3.2 | 3.2 | 0.00 | 2.64 | 2.64 | 74 | 1013.9 |
| 20260903205613 | 30 | 250 | 4.8 | 4.8 | 0.00 | 2.64 | 2.64 | 74 | 1014.3 |
| 20260903205112 | 31 | 236 | 4.8 | 4.8 | 0.00 | 2.64 | 2.64 | 74 | 1014.1 |
| 20260903204609 | 31 | 216 | 1.6 | 1.6 | 0.00 | 2.64 | 2.64 | 72 | 1014.4 |
| 20260903204104 | 31 | 314 | 6.4 | 9.7 | 0.00 | 2.64 | 2.64 | 71 | 1014.3 |
| 20260903203600 | 31 | 267 | 4.8 | 8.0 | 0.00 | 2.64 | 2.64 | 74 | 1014.3 |
| 20260903203059 | 31 | 296 | 3.2 | 3.2 | 0.00 | 2.64 | 2.64 | 71 | 1014.3 |
| 20260903202556 | 31 | 257 | 3.2 | 4.8 | 0.00 | 2.64 | 2.64 | 72 | 1014.3 |
| 20260903202051 | 31 | 291 | 4.8 | 4.8 | 0.00 | 2.64 | 2.64 | 72 | 1014.7 |
| 20260903201551 | 30 | 257 | 4.8 | 4.8 | 0.00 | 2.64 | 2.64 | 74 | 1014.6 |
| 20260903201050 | 30 | 250 | 9.7 | 11.3 | 0.00 | 2.64 | 2.64 | 73 | 1014.5 |
| 20260903200546 | 30 | 293 | 4.8 | 8.0 | 0.00 | 2.64 | 2.64 | 74 | 1014.6 |
| 20260903200040 | 30 | 255 | 6.4 | 9.7 | 0.00 | 2.64 | 2.64 | 75 | 1014.6 |
| 20260903195536 | 30 | 293 | 6.4 | 8.0 | 0.00 | 2.64 | 2.64 | 75 | 1014.6 |
| 20260903195032 | 30 | 272 | 3.2 | 4.8 | 0.00 | 2.64 | 2.64 | 74 | 1014.6 |
| 20260903194527 | 30 | 270 | 4.8 | 8.0 | 0.00 | 2.64 | 2.64 | 74 | 1014.7 |
| 20260903194022 | 30 | 308 | 3.2 | 4.8 | 0.00 | 2.64 | 2.64 | 75 | 1014.9 |
| 20260903193519 | 30 | 298 | 6.4 | 8.0 | 0.00 | 2.64 | 2.64 | 74 | 1014.8 |
| 20260903193014 | 30 | 208 | 3.2 | 3.2 | 0.00 | 2.64 | 2.64 | 74 | 1014.7 |
| 20260903192510 | 30 | 239 | 1.6 | 3.2 | 0.00 | 2.64 | 2.64 | 74 | 1014.9 |
| 20260903192004 | 30 | 223 | 6.4 | 8.0 | 0.00 | 2.64 | 2.64 | 75 | 1014.9 |
| 20260903191500 | 30 | 273 | 6.4 | 9.7 | 0.00 | 2.64 | 2.64 | 74 | 1015.1 |
| 20260903190955 | 30 | 273 | 3.2 | 3.2 | 0.00 | 2.64 | 2.64 | 75 | 1015.1 |
| 20260903190454 | 30 | 227 | 1.6 | 1.6 | 0.00 | 2.64 | 2.64 | 74 | 1015.3 |
| 20260903185948 | 30 | 218 | 8.0 | 9.7 | 0.00 | 2.64 | 2.64 | 74 | 1015.3 |
| 20260903185445 | 30 | 295 | 4.8 | 8.0 | 0.00 | 2.64 | 2.64 | 75 | 1015.3 |
| 20260903184944 | 30 | 295 | 4.8 | 8.0 | 0.00 | 2.64 | 2.64 | 74 | 1015.4 |
| 20260903184442 | 30 | 283 | 8.0 | 11.3 | 0.00 | 2.64 | 2.64 | 76 | 1015.3 |
| 20260903183936 | 30 | 246 | 6.4 | 8.0 | 0.00 | 2.64 | 2.64 | 76 | 1015.5 |
| 20260903183430 | 30 | 279 | 6.4 | 11.3 | 0.00 | 2.64 | 2.64 | 75 | 1015.4 |
| 20260903182930 | 29 | 230 | 4.8 | 8.0 | 0.00 | 2.64 | 2.64 | 77 | 1015.5 |
| 20260903182428 | 29 | 246 | 8.0 | 11.3 | 0.00 | 2.64 | 2.64 | 76 | 1015.4 |
| 20260903181924 | 29 | 307 | 8.0 | 9.7 | 0.00 | 2.64 | 2.64 | 77 | 1015.5 |
| 20260903181418 | 29 | 321 | 14.5 | 16.1 | 0.00 | 2.64 | 2.64 | 77 | 1015.7 |
| 20260903180918 | 29 | 309 | 12.9 | 16.1 | 0.00 | 2.64 | 2.64 | 77 | 1015.7 |
| 20260903180413 | 29 | 216 | 6.4 | 9.7 | 0.00 | 2.64 | 2.64 | 78 | 1015.8 |
| 20260903175912 | 29 | 313 | 9.7 | 12.9 | 0.00 | 2.64 | 2.64 | 77 | 1015.9 |
| 20260903175407 | 29 | 238 | 4.8 | 4.8 | 0.00 | 2.64 | 2.64 | 78 | 1016.1 |
| 20260903174901 | 28 | 286 | 4.8 | 4.8 | 0.00 | 2.64 | 2.64 | 78 | 1015.7 |
| 20260903174356 | 28 | 249 | 6.4 | 8.0 | 0.00 | 2.64 | 2.64 | 78 | 1015.7 |
| 20260903173857 | 28 | 307 | 8.0 | 9.7 | 0.00 | 2.64 | 2.64 | 78 | 1016.0 |
| 20260903173352 | 28 | 259 | 9.7 | 12.9 | 0.00 | 2.64 | 2.64 | 78 | 1016.0 |
| 20260903172848 | 28 | 255 | 8.0 | 12.9 | 0.00 | 2.64 | 2.64 | 78 | 1016.0 |
| 20260903172342 | 28 | 275 | 12.9 | 14.5 | 0.00 | 2.64 | 2.64 | 78 | 1016.4 |
| 20260903171838 | 28 | 296 | 11.3 | 14.5 | 0.00 | 2.64 | 2.64 | 78 | 1016.2 |
| 20260903171333 | 28 | 290 | 12.9 | 16.1 | 0.00 | 2.64 | 2.64 | 79 | 1016.3 |
| 20260903170832 | 28 | 268 | 4.8 | 8.0 | 0.00 | 2.64 | 2.64 | 79 | 1016.1 |
| 20260903170328 | 28 | 286 | 3.2 | 4.8 | 0.00 | 2.64 | 2.64 | 80 | 1016.4 |
| 20260903165826 | 27 | 231 | 4.8 | 4.8 | 0.00 | 2.64 | 2.64 | 80 | 1016.4 |
| 20260903165325 | 27 | 328 | 11.3 | 11.3 | 0.00 | 2.64 | 2.64 | 79 | 1016.7 |
| 20260903164820 | 27 | 261 | 4.8 | 8.0 | 0.00 | 2.64 | 2.64 | 81 | 1016.9 |
| 20260903164316 | 27 | 40 | 4.8 | 8.0 | 0.00 | 2.64 | 2.64 | 80 | 1016.9 |
| 20260903163815 | 27 | 266 | 9.7 | 12.9 | 0.00 | 2.64 | 2.64 | 80 | 1017.1 |
| 20260903163312 | 27 | 222 | 11.3 | 16.1 | 0.00 | 2.64 | 2.64 | 79 | 1016.9 |
| 20260903162807 | 27 | 228 | 6.4 | 8.0 | 0.00 | 2.64 | 2.64 | 81 | 1017.1 |
| 20260903162306 | 27 | 307 | 16.1 | 20.9 | 0.00 | 2.64 | 2.64 | 83 | 1016.9 |
| 20260903161759 | 27 | 302 | 8.0 | 11.3 | 0.00 | 2.64 | 2.64 | 85 | 1017.1 |
| 20260903161254 | 26 | 239 | 3.2 | 4.8 | 0.00 | 2.64 | 2.64 | 86 | 1017.2 |
| 20260903160749 | 26 | 190 | 1.6 | 3.2 | 0.00 | 2.64 | 2.64 | 88 | 1017.3 |
| 20260903160248 | 26 | 222 | 4.8 | 4.8 | 0.00 | 2.64 | 2.64 | 89 | 1017.3 |
| 20260903155747 | 26 | 258 | 8.0 | 9.7 | 0.00 | 2.64 | 2.64 | 88 | 1017.7 |
| 20260903155242 | 26 | 274 | 4.8 | 4.8 | 0.00 | 2.64 | 2.64 | 90 | 1017.7 |
| 20260903154738 | 26 | 259 | 8.0 | 11.3 | 0.00 | 2.64 | 2.64 | 91 | 1018.1 |
| 20260903154234 | 25 | 252 | 4.8 | 4.8 | 0.00 | 2.64 | 2.64 | 92 | 1018.1 |
| 20260903153729 | 25 | 247 | 6.4 | 8.0 | 0.00 | 2.64 | 2.64 | 92 | 1018.2 |
| 20260903153225 | 25 | 298 | 6.4 | 8.0 | 0.00 | 2.64 | 2.64 | 93 | 1018.1 |
| 20260903152721 | 25 | 299 | 4.8 | 4.8 | 0.00 | 2.64 | 2.64 | 94 | 1018.1 |
| 20260903152217 | 25 | 245 | 3.2 | 4.8 | 0.00 | 2.64 | 2.64 | 94 | 1018.3 |
| 20260903151716 | 25 | 314 | 9.7 | 14.5 | 0.00 | 2.64 | 2.64 | 94 | 1017.9 |
| 20260903151212 | 25 | 313 | 8.0 | 11.3 | 0.00 | 2.64 | 2.64 | 94 | 1017.9 |
| 20260903150707 | 25 | 316 | 8.0 | 11.3 | 0.00 | 2.64 | 2.64 | 93 | 1017.9 |
| 20260903150202 | 25 | 282 | 12.9 | 16.1 | 0.00 | 2.64 | 2.64 | 93 | 1017.8 |
| 20260903145701 | 25 | 229 | 8.0 | 9.7 | 0.00 | 2.64 | 2.64 | 94 | 1018.2 |
| 20260903145157 | 25 | 282 | 8.0 | 9.7 | 0.00 | 2.64 | 2.64 | 95 | 1018.1 |
| 20260903144656 | 25 | 219 | 3.2 | 3.2 | 0.00 | 2.64 | 2.64 | 95 | 1018.2 |
| 20260903144152 | 24 | 267 | 9.7 | 11.3 | 0.00 | 2.64 | 2.64 | 95 | 1018.6 |
| 20260903143648 | 24 | 273 | 4.8 | 9.7 | 0.00 | 2.64 | 2.64 | 95 | 1018.1 |
| 20260903143143 | 24 | 309 | 6.4 | 8.0 | 0.00 | 2.64 | 2.64 | 96 | 1018.3 |
| 20260903142639 | 24 | 291 | 6.4 | 9.7 | 0.00 | 2.64 | 2.64 | 95 | 1018.3 |
| 20260903142136 | 24 | 312 | 6.4 | 8.0 | 0.00 | 2.64 | 2.64 | 95 | 1017.9 |
| 20260903141630 | 24 | 169 | 1.6 | 1.6 | 0.00 | 2.64 | 2.64 | 96 | 1017.9 |
| 20260903141125 | 23 | 167 | 3.2 | 3.2 | 0.00 | 2.64 | 2.64 | 96 | 1018.0 |
| 20260903140622 | 23 | 246 | 4.8 | 4.8 | 0.00 | 2.64 | 2.64 | 97 | 1018.0 |
| 20260903140117 | 23 | 228 | 3.2 | 3.2 | 0.00 | 2.64 | 2.64 | 97 | 1018.0 |
| 20260903135612 | 23 | 284 | 6.4 | 8.0 | 0.00 | 2.64 | 2.64 | 97 | 1017.8 |
| 20260903135107 | 23 | 297 | 9.7 | 11.3 | 0.00 | 2.64 | 2.64 | 97 | 1017.6 |
| 20260903134605 | 23 | 318 | 1.6 | 3.2 | 0.00 | 2.64 | 2.64 | 98 | 1017.5 |
| 20260903134101 | 23 | 241 | 4.8 | 4.8 | 0.00 | 2.64 | 2.64 | 98 | 1017.7 |
| 20260903133559 | 22 | 258 | 4.8 | 4.8 | 0.00 | 2.64 | 2.64 | 99 | 1017.7 |
| 20260903133055 | 22 | 281 | 1.6 | 3.2 | 0.00 | 2.64 | 2.64 | 99 | 1017.4 |
| 20260903132550 | 22 | 242 | 3.2 | 4.8 | 0.00 | 2.64 | 2.64 | 99 | 1017.4 |
| 20260903132044 | 22 | 301 | 3.2 | 3.2 | 0.00 | 2.64 | 2.64 | 99 | 1017.4 |
| 20260903131544 | 22 | 182 | 0.0 | 1.6 | 0.00 | 2.64 | 2.64 | 99 | 1017.4 |
| 20260903131038 | 22 | 314 | 3.2 | 3.2 | 0.00 | 2.64 | 2.64 | 99 | 1017.3 |
| 20260903130532 | 22 | 271 | 3.2 | 3.2 | 0.00 | 2.64 | 2.64 | 99 | 1017.5 |
| 20260903130033 | 21 | 315 | 4.8 | 4.8 | 0.00 | 2.64 | 2.64 | 99 | 1017.4 |
| 20260903125531 | 21 | 242 | 3.2 | 4.8 | 0.00 | 2.64 | 2.64 | 99 | 1017.4 |
| 20260903125027 | 21 | 308 | 4.8 | 8.0 | 0.00 | 2.64 | 2.64 | 99 | 1017.5 |
| 20260903124526 | 21 | 303 | 3.2 | 3.2 | 0.00 | 2.64 | 2.64 | 99 | 1017.3 |
| 20260903124021 | 21 | 291 | 1.6 | 1.6 | 0.00 | 2.64 | 2.64 | 99 | 1017.7 |
| 20260903123520 | 21 | 246 | 3.2 | 3.2 | 0.00 | 2.64 | 2.64 | 99 | 1017.7 |
| 20260903123020 | 20 | 259 | 4.8 | 8.0 | 0.00 | 2.64 | 2.64 | 99 | 1017.6 |
| 20260903122514 | 20 | 246 | 1.6 | 3.2 | 0.00 | 2.64 | 2.64 | 99 | 1017.5 |
| 20260903122013 | 20 | 252 | 6.4 | 9.7 | 0.00 | 2.64 | 2.64 | 99 | 1017.6 |
| 20260903121509 | 20 | 219 | 3.2 | 3.2 | 0.00 | 2.64 | 2.64 | 99 | 1017.5 |
| 20260903121005 | 20 | 224 | 4.8 | 8.0 | 0.00 | 2.64 | 2.64 | 99 | 1017.6 |
| 20260903120503 | 20 | 296 | 1.6 | 1.6 | 0.00 | 2.64 | 2.64 | 99 | 1017.5 |
| 20260903120002 | 20 | 317 | 3.2 | 3.2 | 0.00 | 2.64 | 2.64 | 99 | 1017.4 |
| 20260903115456 | 20 | 278 | 4.8 | 9.7 | 0.00 | 2.64 | 2.64 | 99 | 1017.2 |
| 20260903114955 | 20 | 269 | 4.8 | 4.8 | 0.00 | 2.64 | 2.64 | 99 | 1017.3 |
| 20260903114451 | 20 | 332 | 3.2 | 3.2 | 0.00 | 2.64 | 2.64 | 99 | 1016.8 |
| 20260903113946 | 20 | 112 | 1.6 | 3.2 | 0.00 | 2.64 | 2.64 | 99 | 1016.3 |
| 20260903113442 | 20 | 259 | 8.0 | 11.3 | 0.00 | 2.64 | 2.64 | 99 | 1016.9 |
| 20260903112937 | 20 | 214 | 4.8 | 4.8 | 0.00 | 2.64 | 2.64 | 99 | 1016.1 |
| 20260903112433 | 20 | 200 | 0.0 | 0.0 | 0.00 | 2.64 | 2.64 | 99 | 1017.1 |
| 20260903111932 | 20 | 239 | 1.6 | 3.2 | 0.00 | 2.64 | 2.64 | 99 | 1017.3 |
| 20260903111427 | 20 | 217 | 1.6 | 1.6 | 0.00 | 2.64 | 2.64 | 99 | 1017.3 |
| 20260903110923 | 20 | 251 | 0.0 | 1.6 | 0.00 | 2.64 | 2.64 | 99 | 1017.8 |
| 20260903110419 | 20 | 197 | 0.0 | 0.0 | 0.00 | 2.64 | 2.64 | 99 | 1017.7 |
| 20260903105919 | 20 | 283 | 3.2 | 4.8 | 0.00 | 2.64 | 2.64 | 99 | 1017.9 |
| 20260903105415 | 20 | 218 | 0.0 | 1.6 | 0.00 | 2.64 | 2.64 | 99 | 1018.1 |
| 20260903104914 | 20 | 199 | 0.0 | 1.6 | 0.00 | 2.64 | 2.64 | 99 | 1018.0 |
| 20260903104408 | 20 | 232 | 1.6 | 3.2 | 0.00 | 2.64 | 2.64 | 99 | 1018.5 |
| 20260903103906 | 20 | 285 | 3.2 | 3.2 | 0.00 | 2.64 | 2.64 | 99 | 1018.7 |
| 20260903103401 | 20 | 240 | 3.2 | 4.8 | 0.00 | 2.64 | 2.64 | 99 | 1018.8 |
| 20260903102856 | 20 | 275 | 3.2 | 3.2 | 0.00 | 2.64 | 2.64 | 99 | 1018.7 |
| 20260903102351 | 20 | 312 | 4.8 | 9.7 | 0.00 | 2.64 | 2.64 | 99 | 1018.7 |
| 20260903101850 | 20 | 275 | 4.8 | 4.8 | 0.00 | 2.64 | 2.64 | 99 | 1018.6 |
| 20260903101345 | 20 | 256 | 4.8 | 4.8 | 0.00 | 2.64 | 2.64 | 99 | 1018.7 |
| 20260903100835 | 20 | 235 | 4.8 | 4.8 | 0.00 | 2.64 | 2.64 | 99 | 1018.4 |
| 20260903100335 | 20 | 240 | 6.4 | 9.7 | 0.00 | 2.64 | 2.64 | 99 | 1018.2 |
| 20260903095827 | 20 | 281 | 4.8 | 4.8 | 0.00 | 2.64 | 2.64 | 99 | 1018.3 |
| 20260903095326 | 20 | 218 | 3.2 | 3.2 | 0.00 | 2.64 | 2.64 | 99 | 1018.3 |
| 20260903094822 | 20 | 299 | 1.6 | 3.2 | 0.00 | 2.64 | 2.64 | 99 | 1018.4 |
| 20260903094317 | 20 | 225 | 3.2 | 4.8 | 0.00 | 2.64 | 2.64 | 99 | 1018.1 |
| 20260903093813 | 20 | 223 | 1.6 | 3.2 | 0.00 | 2.64 | 2.64 | 99 | 1017.9 |
| 20260903093308 | 19 | 211 | 0.0 | 1.6 | 0.13 | 2.64 | 2.64 | 99 | 1018.1 |
| 20260903092807 | 19 | 253 | 6.4 | 9.7 | 0.30 | 2.64 | 2.64 | 99 | 1018.0 |
| 20260903092306 | 19 | 82 | 1.6 | 1.6 | 0.13 | 2.59 | 2.59 | 99 | 1017.4 |
| 20260903091802 | 19 | 239 | 3.2 | 4.8 | 0.18 | 2.57 | 2.57 | 99 | 1017.9 |
| 20260903091255 | 19 | 208 | 1.6 | 3.2 | 0.48 | 2.57 | 2.57 | 99 | 1018.1 |
| 20260903090752 | 19 | 143 | 1.6 | 3.2 | 0.61 | 2.51 | 2.51 | 99 | 1018.1 |
| 20260903090250 | 19 | 115 | 1.6 | 1.6 | 0.43 | 2.46 | 2.46 | 99 | 1018.4 |
| 20260903085749 | 19 | 200 | 0.0 | 1.6 | 0.43 | 2.41 | 2.41 | 99 | 1018.7 |
| 20260903085244 | 20 | 203 | 0.0 | 1.6 | 0.43 | 2.36 | 2.36 | 99 | 1018.4 |
| 20260903084742 | 20 | 201 | 3.2 | 3.2 | 0.48 | 2.34 | 2.34 | 99 | 1018.3 |
| 20260903084237 | 20 | 219 | 3.2 | 4.8 | 0.48 | 2.29 | 2.29 | 99 | 1018.6 |
| 20260903083733 | 20 | 180 | 0.0 | 1.6 | 0.48 | 2.24 | 2.24 | 99 | 1018.5 |
| 20260903083233 | 20 | 164 | 0.0 | 0.0 | 0.30 | 2.21 | 2.21 | 99 | 1018.3 |
| 20260903082732 | 20 | 165 | 0.0 | 0.0 | 0.30 | 2.16 | 2.16 | 99 | 1018.5 |
| 20260903082228 | 20 | 222 | 1.6 | 1.6 | 0.61 | 2.16 | 2.16 | 99 | 1019.2 |
| 20260903081728 | 20 | 166 | 1.6 | 3.2 | 0.79 | 2.11 | 2.11 | 99 | 1019.2 |
| 20260903081223 | 20 | 234 | 0.0 | 1.6 | 1.07 | 2.06 | 2.06 | 99 | 1020.0 |
| 20260903080720 | 20 | 287 | 1.6 | 3.2 | 0.79 | 1.96 | 1.96 | 99 | 1020.2 |
| 20260903080217 | 20 | 239 | 4.8 | 4.8 | 0.13 | 1.85 | 1.85 | 99 | 1019.6 |
| 20260903075716 | 20 | 177 | 0.0 | 0.0 | 0.18 | 1.83 | 1.83 | 99 | 1019.2 |
| 20260903075212 | 20 | 111 | 0.0 | 1.6 | 0.61 | 1.83 | 1.83 | 99 | 1019.6 |
| 20260903074710 | 20 | 294 | 3.2 | 4.8 | 1.68 | 1.80 | 1.80 | 99 | 1020.0 |
| 20260903074206 | 20 | 81 | 0.0 | 1.6 | 1.27 | 1.68 | 1.68 | 99 | 1020.0 |
| 20260903073701 | 20 | 301 | 4.8 | 8.0 | 0.61 | 1.52 | 1.52 | 99 | 1020.5 |
| 20260903073156 | 20 | 146 | 0.0 | 1.6 | 0.43 | 1.47 | 1.47 | 99 | 1019.9 |
| 20260903072652 | 20 | 179 | 0.0 | 0.0 | 0.13 | 1.42 | 1.42 | 99 | 1019.3 |
| 20260903072148 | 20 | 284 | 0.0 | 0.0 | 0.00 | 1.40 | 1.40 | 99 | 1019.2 |
| 20260903071644 | 20 | 273 | 1.6 | 1.6 | 0.00 | 1.40 | 1.40 | 99 | 1019.4 |
| 20260903071140 | 20 | 212 | 1.6 | 1.6 | 0.00 | 1.40 | 1.40 | 99 | 1019.2 |
| 20260903070639 | 20 | 220 | 0.0 | 1.6 | 0.00 | 1.40 | 1.40 | 99 | 1019.2 |
| 20260903070136 | 20 | 222 | 1.6 | 1.6 | 0.00 | 1.40 | 1.40 | 99 | 1019.0 |
| 20260903065635 | 20 | 191 | 0.0 | 1.6 | 0.00 | 1.40 | 1.40 | 99 | 1018.9 |
| 20260903065130 | 20 | 185 | 0.0 | 0.0 | 0.00 | 1.40 | 1.40 | 99 | 1019.0 |
| 20260903064629 | 20 | 169 | 0.0 | 0.0 | 0.00 | 1.40 | 1.40 | 99 | 1019.0 |
| 20260903064125 | 20 | 209 | 0.0 | 0.0 | 0.00 | 1.40 | 1.40 | 99 | 1019.2 |
| 20260903063620 | 20 | 223 | 1.6 | 1.6 | 0.00 | 1.40 | 1.40 | 99 | 1019.3 |
| 20260903063115 | 20 | 298 | 0.0 | 0.0 | 0.00 | 1.40 | 1.40 | 99 | 1019.3 |
| 20260903062611 | 20 | 281 | 0.0 | 0.0 | 0.00 | 1.40 | 1.40 | 99 | 1019.3 |
| 20260903062106 | 20 | 290 | 1.6 | 1.6 | 0.00 | 1.40 | 1.40 | 99 | 1019.3 |
| 20260903061601 | 20 | 110 | 0.0 | 1.6 | 0.00 | 1.40 | 1.40 | 99 | 1019.1 |
| 20260903061101 | 20 | 143 | 0.0 | 0.0 | 0.00 | 1.40 | 1.40 | 99 | 1018.9 |
| 20260903060600 | 20 | 103 | 0.0 | 1.6 | 0.18 | 1.40 | 1.40 | 99 | 1019.1 |
| 20260903060056 | 20 | 157 | 0.0 | 0.0 | 0.48 | 1.40 | 1.40 | 99 | 1019.1 |
| 20260903055553 | 20 | 144 | 1.6 | 1.6 | 0.43 | 1.37 | 1.37 | 99 | 1019.4 |
| 20260903055052 | 20 | 101 | 0.0 | 1.6 | 0.30 | 1.32 | 1.32 | 99 | 1019.1 |
| 20260903054547 | 20 | 88 | 3.2 | 4.8 | 0.66 | 1.30 | 1.30 | 99 | 1018.3 |
| 20260903054043 | 20 | 126 | 3.2 | 4.8 | 2.87 | 1.27 | 1.27 | 99 | 1018.4 |
| 20260903053538 | 20 | 129 | 6.4 | 8.0 | 3.84 | 1.17 | 1.17 | 99 | 1018.4 |
| 20260903053034 | 20 | 195 | 0.0 | 0.0 | 2.69 | 0.76 | 0.76 | 99 | 1020.5 |
| 20260903052530 | 20 | 111 | 1.6 | 3.2 | 1.50 | 0.48 | 0.48 | 99 | 1020.7 |
| 20260903052026 | 20 | 89 | 4.8 | 8.0 | 0.61 | 0.28 | 0.28 | 99 | 1021.0 |
| 20260903051525 | 20 | 322 | 3.2 | 4.8 | 0.61 | 0.23 | 0.23 | 99 | 1020.8 |
| 20260903051021 | 20 | 97 | 1.6 | 1.6 | 0.61 | 0.18 | 0.18 | 99 | 1021.0 |
| 20260903050520 | 20 | 40 | 1.6 | 1.6 | 0.30 | 0.10 | 0.10 | 99 | 1020.8 |
| 20260903050016 | 20 | 104 | 0.0 | 0.0 | 0.30 | 0.08 | 0.08 | 99 | 1020.4 |
| 20260903045510 | 20 | 68 | 1.6 | 1.6 | 0.13 | 0.05 | 0.05 | 99 | 1020.4 |
| 20260903045007 | 20 | 100 | 0.0 | 0.0 | 0.00 | 0.03 | 0.03 | 99 | 1020.7 |
| 20260903044502 | 21 | 271 | 1.6 | 1.6 | 0.00 | 0.03 | 0.03 | 99 | 1020.5 |
| 20260903043958 | 21 | 53 | 4.8 | 4.8 | 0.00 | 0.03 | 0.03 | 99 | 1020.4 |
| 20260903043453 | 21 | 116 | 1.6 | 1.6 | 0.00 | 0.03 | 0.03 | 99 | 1020.1 |
| 20260903042951 | 21 | 156 | 0.0 | 0.0 | 0.18 | 0.03 | 0.03 | 99 | 1020.0 |
| 20260903042447 | 21 | 75 | 1.6 | 1.6 | 0.18 | 0.03 | 0.03 | 99 | 1019.7 |
| 20260903041943 | 21 | 107 | 1.6 | 1.6 | 0.00 | 0.00 | 0.00 | 99 | 1019.7 |
| 20260903041439 | 21 | 93 | 0.0 | 0.0 | 0.00 | 0.00 | 0.00 | 99 | 1020.0 |
| 20260903040935 | 21 | 61 | 1.6 | 1.6 | 0.00 | 0.00 | 0.00 | 99 | 1020.2 |
| 20260903040433 | 21 | 71 | 1.6 | 1.6 | 0.00 | 0.00 | 0.00 | 99 | 1020.0 |
| 20260903035930 | 21 | 75 | 0.0 | 0.0 | 0.00 | 0.18 | 0.18 | 99 | 1020.2 |
| 20260903035425 | 21 | 76 | 1.6 | 1.6 | 0.00 | 0.18 | 0.18 | 99 | 1020.0 |
| 20260903034920 | 21 | 96 | 1.6 | 1.6 | 0.00 | 0.18 | 0.18 | 99 | 1020.0 |
| 20260903034415 | 21 | 131 | 0.0 | 0.0 | 0.00 | 0.18 | 0.18 | 99 | 1020.4 |
| 20260903033910 | 21 | 79 | 1.6 | 1.6 | 0.00 | 0.18 | 0.18 | 99 | 1020.6 |
| 20260903033405 | 21 | 76 | 0.0 | 0.0 | 0.00 | 0.18 | 0.18 | 99 | 1020.6 |
| 20260903032905 | 21 | 132 | 0.0 | 1.6 | 0.00 | 0.18 | 0.18 | 99 | 1020.3 |
| 20260903032401 | 21 | 159 | 0.0 | 0.0 | 0.00 | 0.18 | 0.18 | 99 | 1020.5 |
| 20260903031856 | 21 | 131 | 1.6 | 1.6 | 0.00 | 0.18 | 0.18 | 99 | 1020.1 |
| 20260903031355 | 21 | 131 | 0.0 | 0.0 | 0.00 | 0.18 | 0.18 | 99 | 1020.1 |
| 20260903030851 | 21 | 127 | 0.0 | 0.0 | 0.00 | 0.18 | 0.18 | 99 | 1019.9 |
| 20260903030347 | 21 | 164 | 0.0 | 0.0 | 0.00 | 0.18 | 0.18 | 99 | 1020.2 |
| 20260903025843 | 21 | 249 | 0.0 | 0.0 | 0.00 | 0.18 | 0.18 | 99 | 1020.1 |
| 20260903025338 | 21 | 297 | 3.2 | 3.2 | 0.00 | 0.18 | 0.18 | 99 | 1020.2 |
| 20260903024838 | 21 | 187 | 0.0 | 1.6 | 0.00 | 0.18 | 0.18 | 99 | 1019.9 |
| 20260903024332 | 21 | 152 | 0.0 | 0.0 | 0.00 | 0.18 | 0.18 | 99 | 1020.1 |
| 20260903023827 | 21 | 142 | 0.0 | 0.0 | 0.00 | 0.18 | 0.18 | 99 | 1019.7 |
| 20260903023323 | 21 | 141 | 0.0 | 0.0 | 0.00 | 0.18 | 0.18 | 99 | 1020.2 |
| 20260903022818 | 21 | 146 | 0.0 | 0.0 | 0.00 | 0.18 | 0.18 | 99 | 1020.1 |
| 20260903022311 | 21 | 91 | 0.0 | 1.6 | 0.00 | 0.18 | 0.18 | 99 | 1020.3 |
| 20260903021811 | 21 | 160 | 0.0 | 0.0 | 0.00 | 0.18 | 0.18 | 99 | 1020.3 |
| 20260903021307 | 21 | 119 | 0.0 | 0.0 | 0.00 | 0.18 | 0.18 | 99 | 1020.2 |
| 20260903020806 | 21 | 126 | 0.0 | 0.0 | 0.00 | 0.18 | 0.18 | 99 | 1020.1 |
| 20260903020301 | 21 | 143 | 0.0 | 0.0 | 0.00 | 0.18 | 0.18 | 99 | 1020.0 |
| 20260903015756 | 21 | 142 | 0.0 | 0.0 | 0.00 | 0.18 | 0.18 | 99 | 1019.9 |
| 20260903015252 | 21 | 153 | 0.0 | 0.0 | 0.00 | 0.18 | 0.18 | 99 | 1020.0 |
| 20260903014747 | 21 | 173 | 0.0 | 0.0 | 0.00 | 0.18 | 0.18 | 99 | 1019.9 |
| 20260903014246 | 21 | 141 | 0.0 | 0.0 | 0.00 | 0.18 | 0.18 | 99 | 1020.0 |
| 20260903013742 | 21 | 124 | 0.0 | 1.6 | 0.00 | 0.18 | 0.18 | 99 | 1019.8 |
| 20260903013241 | 21 | 164 | 0.0 | 0.0 | 0.00 | 0.18 | 0.18 | 99 | 1019.9 |
| 20260903012739 | 21 | 132 | 0.0 | 0.0 | 0.00 | 0.18 | 0.18 | 99 | 1020.0 |
| 20260903012234 | 21 | 102 | 0.0 | 1.6 | 0.00 | 0.18 | 0.18 | 99 | 1019.8 |
| 20260903011728 | 21 | 115 | 0.0 | 0.0 | 0.00 | 0.18 | 0.18 | 99 | 1019.8 |
| 20260903011222 | 21 | 113 | 1.6 | 1.6 | 0.00 | 0.18 | 0.18 | 99 | 1020.0 |
| 20260903010717 | 21 | 140 | 0.0 | 0.0 | 0.00 | 0.18 | 0.18 | 99 | 1019.9 |
| 20260903010217 | 21 | 128 | 1.6 | 1.6 | 0.00 | 0.18 | 0.18 | 99 | 1020.0 |
| 20260903005716 | 21 | 121 | 0.0 | 0.0 | 0.00 | 0.18 | 0.18 | 99 | 1020.4 |
| 20260903005211 | 21 | 112 | 0.0 | 1.6 | 0.00 | 0.18 | 0.18 | 99 | 1020.3 |
| 20260903004708 | 21 | 71 | 0.0 | 0.0 | 0.00 | 0.18 | 0.18 | 99 | 1020.3 |
| 20260903004203 | 21 | 93 | 1.6 | 1.6 | 0.00 | 0.18 | 0.18 | 99 | 1020.3 |
| 20260903003658 | 21 | 88 | 1.6 | 1.6 | 0.00 | 0.18 | 0.18 | 99 | 1020.1 |
| 20260903003153 | 21 | 120 | 0.0 | 0.0 | 0.00 | 0.18 | 0.18 | 99 | 1020.2 |
| 20260903002648 | 21 | 121 | 0.0 | 0.0 | 0.00 | 0.18 | 0.18 | 99 | 1020.1 |
| 20260903002142 | 21 | 103 | 0.0 | 1.6 | 0.00 | 0.18 | 0.18 | 99 | 1019.9 |
| 20260903001637 | 21 | 32 | 1.6 | 3.2 | 0.00 | 0.18 | 0.18 | 99 | 1019.9 |
| 20260903001136 | 21 | 58 | 1.6 | 1.6 | 0.00 | 0.18 | 0.18 | 99 | 1019.9 |
| 20260903000627 | 21 | 109 | 1.6 | 1.6 | 0.00 | 0.18 | 0.18 | 99 | 1019.5 |
| 20260903000126 | 21 | 98 | 1.6 | 1.6 | 0.00 | 0.18 | 0.18 | 99 | 1019.6 |
| 20260902235625 | 21 | 131 | 0.0 | 0.0 | 0.00 | 0.18 | 0.18 | 99 | 1019.8 |
| 20260902235120 | 21 | 117 | 1.6 | 1.6 | 0.00 | 0.18 | 0.18 | 99 | 1019.7 |
| 20260902234614 | 21 | 50 | 3.2 | 3.2 | 0.00 | 0.18 | 0.18 | 99 | 1019.7 |
| 20260902234113 | 21 | 89 | 3.2 | 4.8 | 0.00 | 0.18 | 0.18 | 99 | 1019.3 |
| 20260902233608 | 21 | 113 | 1.6 | 3.2 | 0.00 | 0.18 | 0.18 | 99 | 1019.5 |
| 20260902233102 | 21 | 126 | 0.0 | 0.0 | 0.00 | 0.18 | 0.18 | 99 | 1019.7 |
| 20260902232602 | 21 | 65 | 3.2 | 3.2 | 0.00 | 0.18 | 0.18 | 99 | 1019.7 |
| 20260902232056 | 21 | 87 | 1.6 | 3.2 | 0.00 | 0.18 | 0.18 | 99 | 1019.6 |
| 20260902231556 | 21 | 80 | 1.6 | 1.6 | 0.00 | 0.18 | 0.18 | 99 | 1019.7 |
| 20260902231051 | 21 | 74 | 1.6 | 1.6 | 0.00 | 0.18 | 0.18 | 99 | 1019.6 |
| 20260902230551 | 21 | 138 | 0.0 | 0.0 | 0.00 | 0.18 | 0.18 | 99 | 1020.0 |
| 20260902230050 | 21 | 26 | 3.2 | 3.2 | 0.00 | 0.18 | 0.18 | 99 | 1019.7 |
| 20260902225545 | 21 | 96 | 8.0 | 11.3 | 0.00 | 0.18 | 0.18 | 99 | 1019.7 |
| 20260902225044 | 21 | 123 | 1.6 | 1.6 | 0.00 | 0.18 | 0.18 | 99 | 1019.7 |